createdAt,value
2022-12-03T00:00:51.117Z,100340.50
2022-12-03T00:05:52.706Z,100339.50
2022-12-03T00:10:54.283Z,100341.16
2022-12-03T00:15:56.205Z,100333.56
2022-12-03T00:20:57.859Z,100330.66
2022-12-03T00:25:59.435Z,100332.72
2022-12-03T00:31:01.075Z,100330.09
2022-12-03T00:36:02.738Z,100332.31
2022-12-03T00:41:04.415Z,100329.81
2022-12-03T00:46:06.246Z,100326.31
2022-12-03T00:51:07.905Z,100324.09
2022-12-03T00:56:09.556Z,100323.69
2022-12-03T01:01:11.133Z,100321.81
2022-12-03T01:06:12.728Z,100331.34
2022-12-03T01:11:33.143Z,100333.28
2022-12-03T01:16:35.310Z,100325.72
2022-12-03T01:21:37.745Z,100331.47
2022-12-03T01:26:39.459Z,100334.91
2022-12-03T01:31:59.643Z,100328.31
2022-12-03T01:37:01.269Z,100327.78
2022-12-03T01:42:03.326Z,100321.00
2022-12-03T01:47:07.565Z,100330.91
2022-12-03T01:52:14.284Z,100336.47
2022-12-03T01:57:35.740Z,100344.22
2022-12-03T02:02:37.320Z,100342.69
2022-12-03T02:07:38.977Z,100337.81
2022-12-03T02:12:48.080Z,100343.94
2022-12-03T02:17:50.338Z,100340.50
2022-12-03T02:23:36.060Z,100342.63
2022-12-03T02:28:38.510Z,100340.72
2022-12-03T02:33:40.183Z,100331.22
2022-12-03T02:38:43.646Z,100326.59
2022-12-03T02:43:45.264Z,100331.19
2022-12-03T02:48:46.876Z,100333.97
2022-12-03T02:53:50.683Z,100339.75
2022-12-03T02:58:55.125Z,100331.53
2022-12-03T03:03:58.045Z,100330.94
2022-12-03T03:08:59.671Z,100323.34
2022-12-03T03:14:02.713Z,100330.34
2022-12-03T03:19:04.498Z,100320.16
2022-12-03T03:24:06.457Z,100328.00
2022-12-03T03:29:08.259Z,100319.28
2022-12-03T03:34:10.554Z,100312.88
2022-12-03T03:39:12.916Z,100316.31
2022-12-03T03:44:14.616Z,100319.81
2022-12-03T03:49:16.371Z,100308.63
2022-12-03T03:54:18.232Z,100297.97
2022-12-03T03:59:19.871Z,100297.22
2022-12-03T04:04:23.822Z,100290.31
2022-12-03T04:09:25.473Z,100296.25
2022-12-03T04:14:27.105Z,100306.75
2022-12-03T04:19:28.696Z,100294.06
2022-12-03T04:24:30.293Z,100290.66
2022-12-03T04:29:31.907Z,100300.06
2022-12-03T04:34:52.624Z,100289.97
2022-12-03T04:39:54.606Z,100284.72
2022-12-03T04:44:58.421Z,100287.19
2022-12-03T04:50:00.022Z,100284.66
2022-12-03T04:55:01.665Z,100284.31
2022-12-03T05:00:05.111Z,100284.78
2022-12-03T05:05:07.077Z,100286.38
2022-12-03T05:10:10.247Z,100284.38
2022-12-03T05:15:11.848Z,100290.28
2022-12-03T05:20:32.707Z,100289.44
2022-12-03T05:25:34.348Z,100298.19
2022-12-03T05:30:36.252Z,100285.25
2022-12-03T05:35:38.592Z,100281.94
2022-12-03T05:40:40.525Z,100281.72
2022-12-03T05:45:44.383Z,100270.50
2022-12-03T05:50:46.964Z,100275.44
2022-12-03T05:55:48.562Z,100271.81
2022-12-03T06:00:50.156Z,100268.16
2022-12-03T06:05:51.773Z,100251.03
2022-12-03T06:10:53.388Z,100269.81
2022-12-03T06:15:55.181Z,100273.19
2022-12-03T06:20:56.792Z,100267.97
2022-12-03T06:25:58.555Z,100277.56
2022-12-03T06:31:00.253Z,100279.22
2022-12-03T06:36:01.920Z,100277.44
2022-12-03T06:41:03.702Z,100274.91
2022-12-03T06:46:05.584Z,100283.44
2022-12-03T06:51:07.281Z,100267.31
2022-12-03T06:56:08.888Z,100269.19
2022-12-03T07:01:10.738Z,100282.78
2022-12-03T07:06:12.704Z,100278.75
2022-12-03T07:11:32.684Z,100277.59
2022-12-03T07:16:35.549Z,100276.63
2022-12-03T07:21:37.476Z,100272.41
2022-12-03T07:26:39.284Z,100268.81
2022-12-03T07:31:42.615Z,100271.66
2022-12-03T07:36:44.259Z,100269.94
2022-12-03T07:41:45.857Z,100265.41
2022-12-03T07:46:47.555Z,100277.00
2022-12-03T07:51:54.301Z,100270.19
2022-12-03T07:57:01.175Z,100265.69
2022-12-03T08:02:03.619Z,100267.34
2022-12-03T08:07:06.108Z,100269.09
2022-12-03T08:12:17.212Z,100275.16
2022-12-03T08:17:19.870Z,100261.38
2022-12-03T08:22:22.322Z,100272.72
2022-12-03T08:27:23.988Z,100274.47
2022-12-03T08:32:25.595Z,100269.34
2022-12-03T08:37:27.219Z,100271.91
2022-12-03T08:42:42.008Z,100269.13
2022-12-03T08:47:43.599Z,100270.69
2022-12-03T08:52:45.211Z,100269.78
2022-12-03T08:57:46.938Z,100268.56
2022-12-03T09:02:52.361Z,100278.13
2022-12-03T09:07:54.127Z,100274.53
2022-12-03T09:12:55.802Z,100273.75
2022-12-03T09:17:57.435Z,100275.41
2022-12-03T09:22:59.029Z,100268.88
2022-12-03T09:28:00.676Z,100270.28
2022-12-03T09:33:02.574Z,100278.72
2022-12-03T09:38:04.172Z,100265.56
2022-12-03T09:43:07.146Z,100262.56
2022-12-03T09:48:10.302Z,100260.06
2022-12-03T09:53:17.864Z,100260.25
2022-12-03T09:58:20.819Z,100254.78
2022-12-03T10:03:29.980Z,100249.44
2022-12-03T10:08:33.352Z,100240.28
2022-12-03T10:13:37.687Z,100239.84
2022-12-03T10:18:43.238Z,100234.41
2022-12-03T10:23:49.515Z,100222.75
2022-12-03T10:28:56.836Z,100223.31
2022-12-03T10:33:58.556Z,100217.97
2022-12-03T10:39:14.444Z,100215.91
2022-12-03T10:44:21.768Z,100207.22
2022-12-03T10:49:23.357Z,100204.53
2022-12-03T10:54:27.682Z,100191.41
2022-12-03T10:59:33.300Z,100191.22
2022-12-03T11:04:36.466Z,100197.28
2022-12-03T11:09:38.300Z,100185.66
2022-12-03T11:14:52.590Z,100182.13
2022-12-03T11:19:54.690Z,100177.56
2022-12-03T11:25:27.182Z,100172.72
2022-12-03T11:30:48.856Z,100171.00
2022-12-03T11:36:02.662Z,100169.91
2022-12-03T11:41:24.360Z,100166.50
2022-12-03T11:46:43.553Z,100160.97
2022-12-03T11:51:45.308Z,100160.94
2022-12-03T11:56:51.463Z,100153.16
2022-12-03T12:01:53.080Z,100140.59
2022-12-03T12:06:54.673Z,100136.88
2022-12-03T12:11:56.283Z,100132.31
2022-12-03T12:16:58.524Z,100131.03
2022-12-03T12:22:12.558Z,100128.09
2022-12-03T12:27:32.467Z,100121.22
2022-12-03T12:32:44.321Z,100118.69
2022-12-03T12:38:11.377Z,100114.78
2022-12-03T12:43:26.420Z,100109.72
2022-12-03T12:48:39.748Z,100109.66
2022-12-03T12:53:45.405Z,100110.28
2022-12-03T12:58:47.022Z,100116.19
2022-12-03T13:03:51.932Z,100115.00
2022-12-03T13:08:54.452Z,100109.72
2022-12-03T13:13:56.313Z,100109.03
2022-12-03T13:19:00.817Z,100117.81
2022-12-03T13:24:03.598Z,100107.47
2022-12-03T13:29:16.938Z,100110.63
2022-12-03T13:34:24.617Z,100095.75
2022-12-03T13:39:32.507Z,100086.34
2022-12-03T13:44:36.654Z,100086.44
2022-12-03T13:49:38.330Z,100091.09
2022-12-03T13:54:40.029Z,100077.25
2022-12-03T13:59:41.722Z,100076.22
2022-12-03T14:04:43.348Z,100085.94
2022-12-03T14:09:44.959Z,100085.88
2022-12-03T14:14:46.619Z,100085.31
2022-12-03T14:19:48.303Z,100087.78
2022-12-03T14:24:50.384Z,100077.47
2022-12-03T14:29:52.599Z,100081.81
2022-12-03T14:34:54.565Z,100074.44
2022-12-03T14:39:56.457Z,100077.56
2022-12-03T14:44:58.410Z,100076.03
2022-12-03T14:50:00.011Z,100081.84
2022-12-03T14:55:01.995Z,100074.78
2022-12-03T15:00:07.573Z,100069.91
2022-12-03T15:05:09.571Z,100070.53
2022-12-03T15:10:11.322Z,100064.56
2022-12-03T15:15:12.926Z,100063.63
2022-12-03T15:20:14.725Z,100062.69
2022-12-03T15:25:24.157Z,100065.00
2022-12-03T15:30:25.859Z,100077.56
2022-12-03T15:35:27.456Z,100079.59
2022-12-03T15:40:29.081Z,100077.41
2022-12-03T15:45:30.690Z,100083.69
2022-12-03T15:50:35.789Z,100079.44
2022-12-03T15:55:41.437Z,100080.38
2022-12-03T16:00:43.055Z,100080.38
2022-12-03T16:05:44.662Z,100089.00
2022-12-03T16:10:46.330Z,100089.47
2022-12-03T16:15:48.128Z,100085.84
2022-12-03T16:20:49.915Z,100087.59
2022-12-03T16:25:51.552Z,100089.75
2022-12-03T16:30:53.601Z,100082.41
2022-12-03T16:35:55.350Z,100076.53
2022-12-03T16:40:57.748Z,100078.59
2022-12-03T16:46:02.887Z,100074.22
2022-12-03T16:51:04.879Z,100069.88
2022-12-03T16:56:06.540Z,100068.59
2022-12-03T17:01:08.643Z,100067.28
2022-12-03T17:06:10.358Z,100069.75
2022-12-03T17:11:12.061Z,100070.22
2022-12-03T17:16:13.800Z,100069.28
2022-12-03T17:21:15.528Z,100068.38
2022-12-03T17:26:20.416Z,100061.88
2022-12-03T17:31:22.091Z,100055.13
2022-12-03T17:36:24.909Z,100047.94
2022-12-03T17:41:26.836Z,100052.13
2022-12-03T17:46:28.537Z,100049.44
2022-12-03T17:51:30.656Z,100045.16
2022-12-03T17:56:32.890Z,100043.22
2022-12-03T18:01:34.601Z,100041.06
2022-12-03T18:06:36.647Z,100034.28
2022-12-03T18:11:38.349Z,100028.72
2022-12-03T18:16:40.361Z,100030.94
2022-12-03T18:21:42.145Z,100029.47
2022-12-03T18:26:43.783Z,100033.44
2022-12-03T18:31:45.508Z,100033.06
2022-12-03T18:36:49.663Z,100026.13
2022-12-03T18:41:52.238Z,100028.41
2022-12-03T18:46:55.988Z,100023.81
2022-12-03T18:51:59.767Z,100026.47
2022-12-03T18:57:01.544Z,100026.34
2022-12-03T19:02:03.348Z,100028.78
2022-12-03T19:07:05.108Z,100021.19
2022-12-03T19:12:14.288Z,100012.81
2022-12-03T19:17:16.385Z,100012.00
2022-12-03T19:22:17.981Z,100012.25
2022-12-03T19:27:19.583Z,100012.28
2022-12-03T19:32:21.216Z,100014.72
2022-12-03T19:37:22.845Z,100016.97
2022-12-03T19:42:24.534Z,100015.69
2022-12-03T19:47:26.394Z,100018.69
2022-12-03T19:52:28.027Z,100005.78
2022-12-03T19:57:29.608Z,100010.22
2022-12-03T20:02:31.279Z,100007.28
2022-12-03T20:07:33.100Z,100002.09
2022-12-03T20:12:34.702Z,99995.31
2022-12-03T20:17:36.889Z,99993.53
2022-12-03T20:22:38.955Z,99990.81
2022-12-03T20:27:40.697Z,99992.69
2022-12-03T20:32:45.499Z,99989.19
2022-12-03T20:37:47.459Z,99987.38
2022-12-03T20:42:49.211Z,99992.19
2022-12-03T20:47:50.803Z,99988.84
2022-12-03T20:53:16.276Z,99991.41
2022-12-03T20:58:15.022Z,99986.41
2022-12-03T21:03:16.875Z,99992.03
2022-12-03T21:08:34.032Z,99993.59
2022-12-03T21:13:41.706Z,99998.59
2022-12-03T21:18:43.972Z,100004.44
2022-12-03T21:23:45.709Z,99994.88
2022-12-03T21:28:49.644Z,99986.13
2022-12-03T21:33:54.762Z,99974.28
2022-12-03T21:38:56.484Z,99983.31
2022-12-03T21:43:58.766Z,99988.25
2022-12-03T21:49:01.148Z,99974.97
2022-12-03T21:54:03.229Z,99976.59
2022-12-03T21:59:04.829Z,99971.44
2022-12-03T22:04:06.473Z,99968.13
2022-12-03T22:09:08.062Z,99968.50
2022-12-03T22:14:10.000Z,99971.78
2022-12-03T22:19:11.587Z,99962.69
2022-12-03T22:24:13.269Z,99960.75
2022-12-03T22:29:15.086Z,99962.56
2022-12-03T22:34:16.708Z,99956.38
2022-12-03T22:39:18.328Z,99952.91
2022-12-03T22:44:20.134Z,99950.63
2022-12-03T22:49:21.734Z,99951.09
2022-12-03T22:54:24.337Z,99951.75
2022-12-03T22:59:26.056Z,99961.81
2022-12-03T23:04:27.645Z,99946.41
2022-12-03T23:09:29.321Z,99950.75
2022-12-03T23:14:30.968Z,99943.78
2022-12-03T23:19:32.663Z,99928.22
2022-12-03T23:24:34.375Z,99927.78
2022-12-03T23:29:35.978Z,99929.72
2022-12-03T23:34:37.589Z,99917.41
2022-12-03T23:39:39.307Z,99912.75
2022-12-03T23:44:40.926Z,99890.81
2022-12-03T23:49:42.571Z,99897.59
2022-12-03T23:54:44.209Z,99899.16
2022-12-03T23:59:45.792Z,99892.84
